Time;durP1;ratioP1;P1;durP2;ratioP2;P2;SDS_P1;SDS_P2;PMS_P1;PMS_P2;Temp;Humidity;BMP_temperature;BMP_pressure;BME280_temperature;BME280_humidity;BME280_pressure;Samples;Min_cycle;Max_cycle;Signal;HPM_P1;HPM_P2
2021/01/04 00:00:25;;;;;;;15.82;11.45;;;;;;;7.39;65.03;101892.91;5060917;28;20041;-85
2021/01/04 00:03:18;;;;;;;16.20;9.18;;;;;;;7.65;64.58;101904.75;5063980;28;21412;-86
2021/01/04 00:06:19;;;;;;;15.05;13.68;;;;;;;7.51;65.07;101900.69;5062913;28;20434;-85
2021/01/04 00:09:00;;;;;;;24.42;20.08;;;;;;;7.46;65.06;101884.06;5089437;28;20743;-84
2021/01/04 00:11:49;;;;;;;17.90;16.38;;;;;;;7.50;65.25;101907.09;5061960;28;20530;-85
2021/01/04 00:14:35;;;;;;;19.33;16.90;;;;;;;7.59;64.97;101904.50;5081271;28;20157;-83
2021/01/04 00:17:25;;;;;;;17.50;13.60;;;;;;;7.87;64.16;101902.63;5064670;28;20043;-83
2021/01/04 00:19:59;;;;;;;12.40;9.97;;;;;;;7.24;65.97;101906.91;5081007;28;20068;-86
2021/01/04 00:22:44;;;;;;;13.82;12.40;;;;;;;7.55;64.51;101898.53;5070805;28;20466;-85
2021/01/04 00:25:23;;;;;;;17.30;15.57;;;;;;;7.54;64.98;101896.84;5082841;28;20032;-85
2021/01/04 00:27:57;;;;;;;14.35;11.88;;;;;;;7.73;64.26;101889.59;5089895;28;20111;-88
2021/01/04 00:30:29;;;;;;;19.27;15.60;;;;;;;7.34;65.07;101887.97;5101076;28;20031;-85
2021/01/04 00:32:57;;;;;;;17.02;14.63;;;;;;;7.31;65.00;101889.09;5056876;28;20039;-84
2021/01/04 00:35:25;;;;;;;14.90;13.23;;;;;;;7.16;65.75;101886.00;5089242;28;20028;-82
2021/01/04 00:38:16;;;;;;;14.73;12.88;;;;;;;7.63;64.40;101885.09;5076173;28;20085;-87
2021/01/04 00:41:03;;;;;;;14.68;13.18;;;;;;;7.42;65.36;101889.91;5101785;28;20066;-87
2021/01/04 00:43:51;;;;;;;15.80;11.88;;;;;;;7.56;64.99;101889.41;5088709;28;20040;-83
2021/01/04 00:46:26;;;;;;;21.58;12.38;;;;;;;7.52;64.95;101883.44;5102888;28;20415;-84
2021/01/04 00:49:13;;;;;;;13.55;12.25;;;;;;;7.63;64.85;101889.66;5087939;28;20036;-87
2021/01/04 00:51:45;;;;;;;13.95;11.80;;;;;;;7.63;64.79;101890.53;5083758;28;20032;-85
2021/01/04 00:54:38;;;;;;;14.82;12.52;;;;;;;7.59;64.94;101889.09;5074820;28;20119;-83
2021/01/04 00:57:30;;;;;;;18.25;13.93;;;;;;;7.33;65.62;101892.50;5069836;28;20394;-85
2021/01/04 01:00:17;;;;;;;13.60;11.18;;;;;;;7.40;65.45;101879.25;5088452;28;20466;-83
2021/01/04 01:03:11;;;;;;;16.50;12.27;;;;;;;7.32;65.84;101884.53;5068827;28;20398;-88
2021/01/04 01:05:45;;;;;;;11.40;7.72;;;;;;;7.61;64.66;101886.25;5090449;28;20086;-85
2021/01/04 01:08:16;;;;;;;8.55;6.88;;;;;;;7.60;64.95;101895.38;5092153;28;20031;-88
2021/01/04 01:10:51;;;;;;;13.27;9.35;;;;;;;7.48;65.36;101886.59;5091197;28;20035;-85
2021/01/04 01:13:35;;;;;;;9.85;7.68;;;;;;;7.57;65.26;101885.72;5096512;28;20508;-86
2021/01/04 01:16:00;;;;;;;15.13;8.65;;;;;;;7.60;64.94;101890.81;5087436;28;20036;-85
2021/01/04 01:18:40;;;;;;;12.30;9.85;;;;;;;7.39;65.77;101885.66;5069857;28;20169;-81
2021/01/04 01:21:08;;;;;;;10.73;8.55;;;;;;;7.77;64.72;101881.03;5071580;28;20028;-84
2021/01/04 01:23:35;;;;;;;13.70;10.30;;;;;;;7.16;65.90;101894.13;5095656;28;20036;-83
2021/01/04 01:26:23;;;;;;;15.63;11.35;;;;;;;7.43;65.58;101884.34;5072660;28;20768;-86
2021/01/04 01:29:13;;;;;;;15.75;10.43;;;;;;;7.26;66.10;101888.69;5107813;27;20501;-84
2021/01/04 01:32:17;;;;;;;12.02;8.70;;;;;;;7.18;66.11;101902.09;5089969;28;20082;-86
2021/01/04 01:34:51;;;;;;;17.33;14.23;;;;;;;7.42;65.51;101895.34;5077070;28;20032;-82
2021/01/04 01:37:37;;;;;;;14.25;12.43;;;;;;;7.33;66.00;101888.94;5087777;28;20119;-83
2021/01/04 01:40:20;;;;;;;16.92;11.00;;;;;;;7.56;65.78;101885.84;5093548;28;20085;-84
2021/01/04 01:43:10;;;;;;;11.65;10.35;;;;;;;7.23;65.72;101897.13;5088845;28;20024;-84
2021/01/04 01:45:56;;;;;;;13.90;10.88;;;;;;;7.35;65.90;101881.53;5107651;27;20028;-82
2021/01/04 01:48:30;;;;;;;17.70;15.98;;;;;;;7.25;66.18;101896.97;5089216;28;20036;-85
2021/01/04 01:51:08;;;;;;;15.77;13.10;;;;;;;7.01;66.91;101890.19;5079988;28;20055;-83
2021/01/04 01:53:57;;;;;;;11.52;9.15;;;;;;;6.77;66.79;101878.03;5071831;28;20089;-86
2021/01/04 01:56:47;;;;;;;14.65;13.27;;;;;;;7.40;66.00;101894.59;5089784;28;20036;-88
2021/01/04 01:59:35;;;;;;;16.98;14.75;;;;;;;7.47;65.45;101888.44;5072312;28;20123;-84
2021/01/04 02:02:29;;;;;;;16.65;15.18;;;;;;;6.96;67.11;101887.09;5065120;28;20016;-87
2021/01/04 02:05:15;;;;;;;13.68;12.32;;;;;;;7.35;65.99;101890.50;5086914;28;20040;-89
2021/01/04 02:08:02;;;;;;;17.10;12.30;;;;;;;7.51;65.63;101891.72;5072250;28;20490;-85
2021/01/04 02:10:33;;;;;;;17.58;16.05;;;;;;;7.07;66.90;101892.31;5088006;28;20032;-89
2021/01/04 02:13:17;;;;;;;16.35;14.95;;;;;;;7.28;66.11;101892.09;5089981;28;20630;-83
2021/01/04 02:15:56;;;;;;;11.57;10.50;;;;;;;7.04;66.64;101884.50;5087084;28;20023;-84
2021/01/04 02:18:25;;;;;;;12.40;8.13;;;;;;;7.17;66.53;101900.41;5070402;28;20421;-88
2021/01/04 02:21:25;;;;;;;10.77;9.70;;;;;;;7.09;67.07;101879.50;5070418;28;20540;-83
2021/01/04 02:24:10;;;;;;;13.52;12.23;;;;;;;7.38;65.81;101889.34;5095474;28;20416;-84
2021/01/04 02:26:41;;;;;;;15.27;13.63;;;;;;;7.25;66.19;101875.31;5090303;28;20028;-86
2021/01/04 02:29:07;;;;;;;15.25;13.70;;;;;;;7.22;66.74;101884.56;5089368;28;20492;-85
2021/01/04 02:34:09;;;;;;;14.27;12.80;;;;;;;7.23;66.58;101889.00;5389148;22;20450;-81
2021/01/04 02:36:50;;;;;;;15.15;9.35;;;;;;;7.35;66.44;101897.75;5024001;28;20044;-83
2021/01/04 02:39:30;;;;;;;13.40;12.00;;;;;;;7.58;65.56;101897.38;5025195;28;20051;-80
2021/01/04 02:41:57;;;;;;;15.85;10.48;;;;;;;7.64;65.34;101886.78;5019131;28;20475;-80
2021/01/04 02:44:25;;;;;;;12.68;9.38;;;;;;;6.89;67.16;101886.84;5026893;28;20037;-83
2021/01/04 02:47:11;;;;;;;12.07;10.18;;;;;;;7.44;65.96;101896.03;5027416;28;20026;-81
2021/01/04 02:50:11;;;;;;;16.20;9.95;;;;;;;7.46;66.37;101892.19;5026518;28;21503;-82
2021/01/04 02:53:19;;;;;;;15.05;13.60;;;;;;;7.25;66.88;101886.97;5022875;28;20037;-81
2021/01/04 02:55:52;;;;;;;14.93;11.85;;;;;;;7.29;66.34;101892.94;5028187;28;20483;-79
2021/01/04 02:58:30;;;;;;;14.70;13.18;;;;;;;7.45;65.89;101895.03;5028609;28;20025;-83
2021/01/04 03:01:03;;;;;;;17.70;12.43;;;;;;;7.29;66.54;101892.94;5024695;28;20034;-82
2021/01/04 03:03:31;;;;;;;12.45;9.93;;;;;;;7.30;66.87;101883.84;5023329;28;20040;-80
2021/01/04 03:06:01;;;;;;;13.43;11.80;;;;;;;7.37;66.35;101892.19;5027175;28;20041;-82
2021/01/04 03:08:27;;;;;;;13.17;9.53;;;;;;;7.22;66.36;101891.84;5025096;28;20033;-83
2021/01/04 03:10:52;;;;;;;14.35;12.85;;;;;;;7.16;66.13;101883.31;5025400;28;20675;-80
2021/01/04 03:14:01;;;;;;;15.95;11.10;;;;;;;7.34;66.21;101886.09;5023792;28;20060;-81
2021/01/04 03:16:42;;;;;;;17.90;13.20;;;;;;;6.92;66.65;101886.53;5005063;28;20054;-81
2021/01/04 03:19:12;;;;;;;14.93;9.77;;;;;;;7.44;65.74;101879.78;5025595;28;20037;-80
2021/01/04 03:21:40;;;;;;;17.45;15.75;;;;;;;6.99;66.58;101875.97;5023917;28;20117;-79
2021/01/04 03:24:16;;;;;;;15.35;12.77;;;;;;;7.31;65.78;101888.25;5024741;28;20052;-80
2021/01/04 03:26:52;;;;;;;12.52;11.32;;;;;;;7.31;65.90;101877.44;5024058;28;20029;-79
2021/01/04 03:29:17;;;;;;;15.50;14.02;;;;;;;7.42;65.68;101890.75;5019935;28;20083;-80
2021/01/04 03:31:43;;;;;;;13.02;11.63;;;;;;;7.43;65.32;101867.25;5025605;28;20574;-82
2021/01/04 03:34:08;;;;;;;14.00;10.40;;;;;;;7.33;65.60;101884.38;5012602;28;20050;-81
2021/01/04 03:36:33;;;;;;;12.50;10.30;;;;;;;7.17;65.72;101876.91;5006641;28;20022;-81
2021/01/04 03:38:59;;;;;;;12.52;11.27;;;;;;;7.29;66.08;101882.13;4989171;28;20629;-81
2021/01/04 03:41:24;;;;;;;12.85;10.65;;;;;;;7.24;65.69;101884.44;5005822;28;20034;-82
2021/01/04 03:43:49;;;;;;;14.73;12.80;;;;;;;7.16;66.21;101883.31;5005624;28;20042;-81
2021/01/04 03:46:15;;;;;;;14.63;13.13;;;;;;;7.16;66.30;101866.22;4989009;28;20034;-83
2021/01/04 03:48:40;;;;;;;16.25;14.43;;;;;;;7.45;65.84;101886.91;5007305;28;20063;-83
2021/01/04 03:51:09;;;;;;;13.65;12.45;;;;;;;7.23;66.08;101888.13;4989674;28;20060;-81
2021/01/04 03:53:34;;;;;;;16.17;14.75;;;;;;;7.35;66.22;101884.22;5006792;28;20065;-81
2021/01/04 03:55:59;;;;;;;14.75;13.45;;;;;;;7.36;65.89;101880.53;5007993;28;20025;-82
2021/01/04 03:58:25;;;;;;;13.73;11.38;;;;;;;7.02;66.82;101886.50;5020103;28;20041;-81
2021/01/04 04:00:50;;;;;;;13.32;10.43;;;;;;;7.25;66.02;101886.97;5011516;28;20034;-82
2021/01/04 04:03:16;;;;;;;13.15;11.90;;;;;;;7.03;66.19;101880.09;5005788;28;20033;-88
2021/01/04 04:05:41;;;;;;;13.52;12.10;;;;;;;7.16;65.96;101882.47;4992782;28;20030;-80
2021/01/04 04:08:06;;;;;;;13.38;9.15;;;;;;;7.57;65.09;101884.84;5010191;28;20037;-82
2021/01/04 04:10:32;;;;;;;11.70;10.57;;;;;;;7.26;65.97;101885.13;5011183;28;20795;-81
2021/01/04 04:12:58;;;;;;;11.93;9.65;;;;;;;7.08;66.19;101885.06;5010576;28;20041;-80
2021/01/04 04:15:24;;;;;;;12.75;10.48;;;;;;;7.20;65.81;101874.91;5010209;28;20475;-81
2021/01/04 04:17:50;;;;;;;14.85;11.55;;;;;;;6.87;66.91;101885.25;5009179;28;20041;-80
2021/01/04 04:20:19;;;;;;;14.60;13.18;;;;;;;7.13;66.46;101894.44;5007192;28;20030;-82
2021/01/04 04:22:49;;;;;;;17.48;15.32;;;;;;;7.28;65.93;101886.69;5010460;28;20096;-81
2021/01/04 04:25:17;;;;;;;11.00;9.88;;;;;;;6.97;66.85;101884.25;5008161;28;20025;-81
2021/01/04 04:27:42;;;;;;;12.48;11.38;;;;;;;7.27;65.96;101889.53;5008655;28;20561;-81
2021/01/04 04:30:11;;;;;;;15.60;14.15;;;;;;;7.14;66.66;101885.31;5010230;28;20038;-80
2021/01/04 04:32:36;;;;;;;15.63;12.80;;;;;;;7.17;66.16;101895.84;5007433;28;20033;-82
2021/01/04 04:35:04;;;;;;;13.75;12.15;;;;;;;6.90;66.92;101893.94;5011615;28;20041;-81
2021/01/04 04:37:30;;;;;;;18.33;16.63;;;;;;;6.78;66.90;101897.78;5010257;28;20048;-81
2021/01/04 04:39:55;;;;;;;19.83;17.02;;;;;;;7.43;65.44;101878.06;5010632;28;20033;-81
2021/01/04 04:42:21;;;;;;;16.83;15.30;;;;;;;7.29;65.13;101871.28;4992101;28;20034;-81
2021/01/04 04:44:59;;;;;;;19.35;13.45;;;;;;;7.39;65.35;101892.91;4993245;28;20045;-81
2021/01/04 04:48:06;;;;;;;14.65;10.02;;;;;;;7.12;66.31;101902.69;5009592;28;20041;-80
2021/01/04 04:50:50;;;;;;;16.27;13.45;;;;;;;7.39;65.42;101904.59;4980083;28;20136;-83
2021/01/04 04:53:24;;;;;;;17.13;14.45;;;;;;;7.38;65.59;101902.88;5012251;28;20043;-82
2021/01/04 04:56:04;;;;;;;13.82;12.32;;;;;;;7.10;66.02;101910.94;5008828;28;20061;-81
2021/01/04 04:58:51;;;;;;;16.13;12.23;;;;;;;7.24;66.05;101889.84;5005257;28;20060;-82
2021/01/04 05:01:43;;;;;;;15.48;12.30;;;;;;;7.00;66.17;101893.91;5007592;28;20553;-81
2021/01/04 05:04:53;;;;;;;12.93;10.35;;;;;;;6.99;66.42;101893.03;5002699;28;20042;-83
2021/01/04 05:08:00;;;;;;;15.52;13.88;;;;;;;7.20;65.94;101888.41;5007177;28;20018;-83
2021/01/04 05:10:30;;;;;;;16.67;14.85;;;;;;;7.05;66.29;101904.28;4960137;28;20061;-81
2021/01/04 05:13:00;;;;;;;19.35;17.58;;;;;;;7.01;66.43;101889.34;5007216;28;20033;-81
2021/01/04 05:15:48;;;;;;;25.08;22.70;;;;;;;6.80;67.11;101912.88;5009344;28;20030;-82
2021/01/04 05:18:38;;;;;;;13.55;10.20;;;;;;;6.70;67.08;101908.47;5022471;28;20117;-82
2021/01/04 05:21:47;;;;;;;13.20;11.23;;;;;;;7.25;66.19;101907.78;5008266;28;20042;-82
2021/01/04 05:24:31;;;;;;;18.63;11.00;;;;;;;6.98;66.47;101904.88;5009426;28;20037;-82
2021/01/04 05:27:35;;;;;;;12.10;10.90;;;;;;;7.21;65.98;101906.38;5008757;28;20057;-82
2021/01/04 05:30:21;;;;;;;15.90;11.93;;;;;;;7.28;65.63;101911.03;5009486;28;20061;-79
2021/01/04 05:33:06;;;;;;;18.13;15.73;;;;;;;7.06;66.32;101908.69;5008736;28;20061;-83
2021/01/04 05:35:35;;;;;;;14.77;10.15;;;;;;;7.14;66.35;101904.25;5008398;28;20033;-80
2021/01/04 05:38:16;;;;;;;13.85;11.48;;;;;;;7.15;66.44;101914.09;5009198;28;20140;-81
2021/01/04 05:40:51;;;;;;;12.63;10.25;;;;;;;6.86;66.79;101918.69;5007041;28;20105;-82
2021/01/04 05:43:51;;;;;;;18.50;9.38;;;;;;;6.91;66.52;101916.44;5008801;28;20072;-82
2021/01/04 05:46:25;;;;;;;13.70;10.65;;;;;;;6.70;67.34;101912.03;5007573;28;20037;-78
2021/01/04 05:49:11;;;;;;;19.65;11.73;;;;;;;6.99;66.57;101917.38;5008090;28;20033;-80
2021/01/04 05:51:45;;;;;;;15.68;12.18;;;;;;;7.28;65.58;101912.91;5007930;28;20080;-82
2021/01/04 05:54:12;;;;;;;12.60;8.52;;;;;;;7.13;65.88;101921.47;5007930;28;20033;-82
2021/01/04 05:56:37;;;;;;;17.42;11.48;;;;;;;7.28;65.70;101923.72;5007717;28;20038;-79
2021/01/04 05:59:10;;;;;;;14.93;9.57;;;;;;;7.29;65.16;101915.47;5007123;28;20161;-81
2021/01/04 06:01:38;;;;;;;17.48;12.73;;;;;;;7.03;66.11;101914.38;5006747;28;20075;-80
2021/01/04 06:04:10;;;;;;;15.77;12.90;;;;;;;7.43;64.82;101918.66;5007054;28;20472;-82
2021/01/04 06:06:46;;;;;;;12.77;10.32;;;;;;;7.25;65.46;101916.75;5022909;28;20069;-81
2021/01/04 06:09:16;;;;;;;17.40;13.88;;;;;;;7.34;64.90;101917.72;5014354;28;20030;-84
2021/01/04 06:11:57;;;;;;;15.48;13.95;;;;;;;7.47;64.70;101918.22;5007723;28;20040;-80
2021/01/04 06:14:43;;;;;;;17.08;12.20;;;;;;;7.19;65.27;101920.03;5011553;28;20034;-81
2021/01/04 06:17:27;;;;;;;17.63;14.10;;;;;;;7.17;65.36;101928.31;5005057;28;20038;-80
2021/01/04 06:19:57;;;;;;;14.60;11.60;;;;;;;7.28;65.04;101921.03;5006753;28;20431;-81
2021/01/04 06:22:31;;;;;;;13.82;12.00;;;;;;;7.24;65.29;101925.00;5006945;28;20033;-82
2021/01/04 06:25:02;;;;;;;12.43;11.20;;;;;;;7.15;65.55;101926.75;5007820;28;20038;-83
2021/01/04 06:27:38;;;;;;;19.77;10.20;;;;;;;7.32;64.96;101933.22;5008099;28;20052;-80
2021/01/04 06:30:42;;;;;;;17.45;15.05;;;;;;;7.29;65.27;101942.53;5026782;28;20030;-80
2021/01/04 06:33:15;;;;;;;15.15;13.82;;;;;;;6.94;65.63;101926.94;4983630;28;20108;-82
2021/01/04 06:35:41;;;;;;;20.58;17.45;;;;;;;7.46;64.62;101934.59;5005647;28;20041;-83
2021/01/04 06:38:26;;;;;;;23.13;20.95;;;;;;;7.33;65.10;101937.66;5005767;28;20065;-82
2021/01/04 06:40:53;;;;;;;18.65;16.85;;;;;;;7.17;64.88;101941.00;5006711;28;20435;-82
2021/01/04 06:43:34;;;;;;;20.02;18.15;;;;;;;7.05;65.59;101940.28;5006625;28;20037;-84
2021/01/04 06:46:36;;;;;;;22.20;20.15;;;;;;;7.23;65.14;101947.66;5007541;28;20044;-80
2021/01/04 06:49:09;;;;;;;18.27;16.25;;;;;;;7.10;64.97;101948.81;5008607;28;20053;-81
2021/01/04 06:51:56;;;;;;;18.85;16.92;;;;;;;7.55;64.42;101941.00;5008001;28;20678;-82
2021/01/04 06:54:42;;;;;;;20.20;17.88;;;;;;;7.11;65.26;101942.41;5008412;28;20553;-80
2021/01/04 06:57:17;;;;;;;18.30;14.65;;;;;;;7.27;64.57;101951.78;5003626;28;20124;-80
2021/01/04 07:00:19;;;;;;;16.67;14.95;;;;;;;7.47;64.20;101957.97;5006159;28;20516;-85
2021/01/04 07:03:01;;;;;;;11.85;10.65;;;;;;;7.10;65.36;101962.34;5006375;28;20053;-83
2021/01/04 07:05:48;;;;;;;16.92;15.20;;;;;;;7.44;64.40;101959.13;5007799;28;20083;-80
2021/01/04 07:08:38;;;;;;;12.45;11.15;;;;;;;7.16;64.96;101964.47;5003007;28;20105;-82
2021/01/04 07:11:35;;;;;;;16.45;14.30;;;;;;;7.24;65.02;101962.88;5005401;28;20061;-81
2021/01/04 07:14:16;;;;;;;17.30;15.40;;;;;;;7.34;64.49;101964.56;4973809;28;20041;-81
2021/01/04 07:17:11;;;;;;;24.77;21.27;;;;;;;7.24;65.24;101979.13;5008610;28;20502;-79
2021/01/04 07:19:54;;;;;;;20.23;13.27;;;;;;;7.40;64.52;101965.84;5006492;28;20503;-83
2021/01/04 07:22:27;;;;;;;16.65;14.85;;;;;;;7.29;65.01;101969.56;5004745;28;20770;-79
2021/01/04 07:25:15;;;;;;;16.70;11.35;;;;;;;7.07;65.17;101969.91;5005983;28;20056;-82
2021/01/04 07:27:50;;;;;;;13.07;9.63;;;;;;;7.09;65.40;101971.47;5008384;28;20139;-83
2021/01/04 07:30:28;;;;;;;14.93;12.10;;;;;;;7.19;65.13;101987.69;5009322;28;20124;-82
2021/01/04 07:33:23;;;;;;;14.00;12.65;;;;;;;7.18;65.00;101983.25;5007514;28;20052;-81
2021/01/04 07:36:00;;;;;;;13.32;9.80;;;;;;;7.67;63.52;101977.69;4998129;28;20038;-81
2021/01/04 07:38:44;;;;;;;13.90;10.82;;;;;;;7.29;64.24;101991.22;5005542;28;20128;-80
2021/01/04 07:41:28;;;;;;;15.13;11.43;;;;;;;7.13;64.98;101986.41;5005264;28;20038;-82
2021/01/04 07:44:20;;;;;;;13.88;12.43;;;;;;;7.19;65.19;101984.97;5005764;28;20037;-81
2021/01/04 07:46:59;;;;;;;17.17;13.32;;;;;;;7.30;64.44;101981.25;5020002;28;20036;-82
2021/01/04 07:49:56;;;;;;;16.25;14.98;;;;;;;7.37;64.39;101990.50;5014554;28;20121;-81
2021/01/04 07:52:49;;;;;;;13.00;10.82;;;;;;;7.09;65.04;102000.34;5005168;28;20033;-83
2021/01/04 07:55:52;;;;;;;11.80;9.13;;;;;;;7.06;64.92;102001.53;5005657;28;20066;-83
2021/01/04 07:58:44;;;;;;;13.82;12.57;;;;;;;7.04;65.22;102011.63;5006334;28;20748;-83
2021/01/04 08:01:54;;;;;;;12.23;11.23;;;;;;;7.24;64.75;102001.59;5005967;28;20076;-81
2021/01/04 08:04:38;;;;;;;9.63;7.50;;;;;;;7.07;64.89;102008.63;4890131;29;20075;-81
2021/01/04 08:07:19;;;;;;;14.10;12.90;;;;;;;7.53;63.79;102011.50;4997059;28;20069;-82
2021/01/04 08:09:54;;;;;;;13.82;12.43;;;;;;;7.20;64.71;102013.75;5020295;28;20048;-80
2021/01/04 08:12:44;;;;;;;12.55;10.63;;;;;;;7.45;63.77;102012.25;5003786;28;20022;-83
2021/01/04 08:15:28;;;;;;;12.35;8.40;;;;;;;7.32;63.91;102007.16;5007104;28;20064;-81
2021/01/04 08:18:22;;;;;;;10.20;7.40;;;;;;;7.09;64.60;102022.88;5006021;28;20042;-84
2021/01/04 08:21:07;;;;;;;16.30;9.13;;;;;;;6.79;65.03;102027.41;5007454;28;20029;-84
2021/01/04 08:23:51;;;;;;;11.40;7.50;;;;;;;7.28;64.18;102021.97;5003844;28;20034;-82
2021/01/04 08:26:41;;;;;;;10.88;9.85;;;;;;;7.26;64.07;102028.53;5004689;28;20625;-84
2021/01/04 08:29:18;;;;;;;12.13;8.20;;;;;;;6.88;64.81;102028.44;5005222;28;20460;-82
2021/01/04 08:32:12;;;;;;;10.20;9.32;;;;;;;6.92;64.78;102037.09;5005543;28;20064;-82
2021/01/04 08:34:42;;;;;;;17.02;12.20;;;;;;;7.23;63.89;102043.22;5005978;28;20046;-82
2021/01/04 08:37:10;;;;;;;10.85;9.68;;;;;;;7.30;63.66;102046.19;5006936;28;20084;-82
2021/01/04 08:39:43;;;;;;;14.20;12.77;;;;;;;7.10;63.78;102034.53;5006574;28;20038;-82
2021/01/04 08:42:27;;;;;;;16.77;13.57;;;;;;;7.00;64.19;102039.97;5006194;28;20499;-82
2021/01/04 08:45:04;;;;;;;12.90;11.63;;;;;;;6.95;64.28;102053.03;5004180;28;20042;-82
2021/01/04 08:47:46;;;;;;;10.13;9.20;;;;;;;6.88;64.62;102030.28;5005000;28;20105;-80
2021/01/04 08:50:34;;;;;;;13.65;12.45;;;;;;;6.92;64.44;102047.91;5004374;28;20069;-81
2021/01/04 08:53:19;;;;;;;15.80;14.50;;;;;;;6.82;64.42;102050.63;5007645;28;20563;-86
2021/01/04 08:55:45;;;;;;;13.15;11.30;;;;;;;6.79;64.19;102049.06;5007224;28;20116;-87
2021/01/04 08:58:20;;;;;;;13.48;12.10;;;;;;;7.30;63.24;102057.84;5008639;28;20593;-81
2021/01/04 09:01:11;;;;;;;18.35;16.98;;;;;;;6.97;63.60;102051.06;5008398;28;20514;-84
2021/01/04 09:03:37;;;;;;;12.07;10.25;;;;;;;7.07;63.46;102046.47;5009624;28;20088;-82
2021/01/04 09:06:27;;;;;;;15.60;13.98;;;;;;;7.11;63.09;102069.56;5010443;28;20030;-83
2021/01/04 09:09:13;;;;;;;17.88;13.65;;;;;;;6.95;63.29;102058.44;5008913;28;20038;-83
2021/01/04 09:11:43;;;;;;;13.07;11.85;;;;;;;7.04;63.15;102052.19;5009374;28;20492;-85
2021/01/04 09:14:23;;;;;;;10.65;9.02;;;;;;;7.09;62.97;102057.16;5007238;28;20037;-83
2021/01/04 09:16:49;;;;;;;9.37;8.27;;;;;;;7.04;62.71;102063.00;5004133;28;20502;-82
2021/01/04 09:19:23;;;;;;;9.77;8.70;;;;;;;7.08;63.45;102059.03;5004232;28;20488;-80
2021/01/04 09:21:49;;;;;;;14.02;12.70;;;;;;;6.93;63.14;102065.84;5003410;28;20026;-82
2021/01/04 09:24:24;;;;;;;18.20;16.90;;;;;;;7.40;62.11;102071.38;4987271;28;20057;-82
2021/01/04 09:27:13;;;;;;;16.27;15.05;;;;;;;7.46;62.31;102065.41;5014320;28;20049;-81
2021/01/04 09:29:46;;;;;;;15.35;14.15;;;;;;;7.29;61.96;102069.69;5002242;28;20045;-81
2021/01/04 09:32:15;;;;;;;14.95;13.35;;;;;;;7.43;61.85;102068.38;5004160;28;20091;-82
2021/01/04 09:34:41;;;;;;;18.02;13.77;;;;;;;7.26;61.91;102072.69;5001066;28;20054;-82
2021/01/04 09:37:10;;;;;;;15.55;14.10;;;;;;;7.07;62.46;102072.69;5004603;28;20037;-87
2021/01/04 09:39:38;;;;;;;11.98;10.73;;;;;;;7.20;62.20;102081.38;5002995;28;20092;-84
2021/01/04 09:42:08;;;;;;;11.50;10.48;;;;;;;7.15;61.99;102081.81;5002057;28;20072;-83
2021/01/04 09:44:34;;;;;;;12.40;11.40;;;;;;;6.70;62.72;102090.44;5004258;28;20042;-86
2021/01/04 09:47:23;;;;;;;18.30;16.70;;;;;;;7.17;61.84;102079.81;5001723;28;20044;-83
2021/01/04 09:49:54;;;;;;;18.33;16.63;;;;;;;7.24;61.86;102081.94;5002385;28;20040;-82
2021/01/04 09:52:26;;;;;;;21.35;19.95;;;;;;;7.35;61.29;102074.53;5017855;28;20698;-81
2021/01/04 09:55:08;;;;;;;15.70;14.45;;;;;;;6.85;62.19;102087.34;5003418;28;20034;-84
2021/01/04 09:57:40;;;;;;;11.38;10.38;;;;;;;7.13;61.61;102085.66;5002609;28;20056;-83
2021/01/04 10:00:12;;;;;;;11.43;10.27;;;;;;;7.02;62.00;102097.47;5003739;28;20022;-81
2021/01/04 10:02:38;;;;;;;16.80;14.02;;;;;;;6.88;61.94;102081.66;5004150;28;20038;-79
2021/01/04 10:05:07;;;;;;;16.05;14.73;;;;;;;7.02;61.80;102086.63;5004724;28;20610;-80
2021/01/04 10:07:34;;;;;;;15.00;13.88;;;;;;;6.98;62.27;102104.13;5003161;28;20033;-80
2021/01/04 10:10:00;;;;;;;23.02;20.98;;;;;;;6.84;62.34;102097.28;5001943;28;20030;-81
2021/01/04 10:12:27;;;;;;;17.05;15.65;;;;;;;6.95;62.07;102086.38;5002367;28;20033;-82
2021/01/04 10:14:55;;;;;;;12.55;11.55;;;;;;;7.09;61.62;102090.50;5002224;28;20087;-80
2021/01/04 10:17:29;;;;;;;15.52;12.07;;;;;;;7.01;61.84;102074.09;5001814;28;20033;-80
2021/01/04 10:20:00;;;;;;;14.98;13.65;;;;;;;7.13;61.95;102077.53;5002753;28;20031;-81
2021/01/04 10:22:40;;;;;;;21.33;19.58;;;;;;;7.14;61.53;102084.66;4984433;28;20057;-80
2021/01/04 10:25:22;;;;;;;20.60;19.00;;;;;;;6.67;62.62;102090.72;5003305;28;20523;-85
2021/01/04 10:28:01;;;;;;;22.30;20.58;;;;;;;6.98;62.09;102096.03;5001589;28;20030;-80
2021/01/04 10:30:28;;;;;;;16.35;15.13;;;;;;;6.78;62.29;102089.75;5001481;28;20100;-84
2021/01/04 10:33:25;;;;;;;13.05;11.93;;;;;;;6.93;62.16;102090.19;5002414;28;20034;-79
2021/01/04 10:36:22;;;;;;;13.68;12.75;;;;;;;6.92;61.58;102091.19;5002029;28;20044;-82
2021/01/04 10:39:00;;;;;;;13.50;12.48;;;;;;;6.66;62.10;102101.69;4987067;28;20113;-82
2021/01/04 10:41:29;;;;;;;11.68;10.52;;;;;;;6.99;61.49;102101.28;5001766;28;20044;-84
2021/01/04 10:44:10;;;;;;;11.90;10.90;;;;;;;6.98;61.45;102107.72;5003219;28;20037;-82
2021/01/04 10:46:43;;;;;;;13.07;11.70;;;;;;;6.90;62.03;102088.63;5002277;28;20163;-83
2021/01/04 10:49:12;;;;;;;6.95;6.18;;;;;;;6.61;62.03;102088.59;5003203;28;20044;-88
2021/01/04 10:51:47;;;;;;;11.57;10.80;;;;;;;6.59;62.28;102106.81;4997556;28;20041;-84
2021/01/04 10:54:19;;;;;;;12.30;11.25;;;;;;;6.63;62.21;102098.28;4998878;28;20060;-85
2021/01/04 10:57:04;;;;;;;14.48;13.32;;;;;;;6.78;61.41;102092.44;4997936;28;20036;-82
2021/01/04 10:59:36;;;;;;;12.85;11.85;;;;;;;7.05;61.00;102101.75;4997961;28;20029;-84
2021/01/04 11:02:02;;;;;;;11.25;10.25;;;;;;;7.06;61.13;102090.78;4996042;28;20053;-81
2021/01/04 11:04:28;;;;;;;11.05;10.25;;;;;;;6.81;61.23;102087.63;4999721;28;20495;-85
2021/01/04 11:07:12;;;;;;;13.27;12.32;;;;;;;6.92;60.63;102092.06;4979283;28;20077;-84
2021/01/04 11:09:41;;;;;;;11.43;10.68;;;;;;;6.72;61.47;102098.41;5000478;28;20048;-85
2021/01/04 11:12:13;;;;;;;9.10;8.45;;;;;;;6.99;60.90;102089.63;4998452;28;20057;-87
2021/01/04 11:14:52;;;;;;;9.73;9.05;;;;;;;6.88;61.26;102068.16;4998344;28;20037;-86
2021/01/04 11:17:36;;;;;;;9.63;8.93;;;;;;;7.01;60.28;102063.28;5000810;28;20040;-84
2021/01/04 11:20:28;;;;;;;12.82;11.60;;;;;;;7.08;60.40;102074.41;4999747;28;20041;-84
2021/01/04 11:23:03;;;;;;;14.77;13.63;;;;;;;7.04;60.39;102095.47;4996321;28;20053;-83
2021/01/04 11:25:28;;;;;;;13.43;12.38;;;;;;;7.10;59.59;102075.94;4997328;28;20037;-82
2021/01/04 11:27:54;;;;;;;37.22;33.45;;;;;;;7.12;59.39;102079.41;4993775;28;20038;-81
2021/01/04 11:30:20;;;;;;;13.43;12.35;;;;;;;6.80;60.14;102072.41;4997446;28;20033;-86
2021/01/04 11:32:46;;;;;;;12.07;11.32;;;;;;;6.64;60.42;102072.09;4998089;28;20030;-83
2021/01/04 11:35:11;;;;;;;10.85;9.90;;;;;;;7.10;59.24;102078.66;4998123;28;20065;-84
2021/01/04 11:37:38;;;;;;;12.93;11.73;;;;;;;6.95;59.18;102064.72;4998764;28;20046;-85
2021/01/04 11:40:04;;;;;;;15.18;14.13;;;;;;;6.80;59.62;102069.69;4997855;28;20121;-86
2021/01/04 11:42:29;;;;;;;14.30;13.13;;;;;;;6.81;60.12;102066.00;5006757;28;20128;-84
2021/01/04 11:44:54;;;;;;;13.65;12.77;;;;;;;6.94;60.09;102084.66;4998235;28;20042;-84
2021/01/04 11:47:20;;;;;;;14.15;13.25;;;;;;;6.75;59.73;102060.28;4998628;28;20085;-83
2021/01/04 11:49:46;;;;;;;18.25;16.85;;;;;;;7.20;59.39;102056.16;4996991;28;20488;-82
2021/01/04 11:52:11;;;;;;;19.63;18.40;;;;;;;6.90;59.57;102047.22;4996890;28;20030;-87
2021/01/04 11:54:45;;;;;;;17.65;16.13;;;;;;;6.74;59.85;102054.03;4997699;28;20038;-88
2021/01/04 11:57:11;;;;;;;15.38;14.38;;;;;;;6.89;59.71;102054.47;4998052;28;20030;-85
2021/01/04 11:59:37;;;;;;;9.68;8.55;;;;;;;7.08;59.03;102042.78;4998079;28;20129;-83
2021/01/04 12:02:03;;;;;;;10.30;9.30;;;;;;;7.01;59.49;102047.06;4997784;28;20224;-84
2021/01/04 12:04:28;;;;;;;11.02;10.25;;;;;;;7.00;58.86;102037.25;4998230;28;20617;-82
2021/01/04 12:06:54;;;;;;;10.73;9.93;;;;;;;7.30;58.15;102032.66;4998012;28;20080;-87
2021/01/04 12:09:19;;;;;;;21.85;20.45;;;;;;;6.99;59.04;102032.84;4982675;28;20038;-91